Time;durP1;ratioP1;P1;durP2;ratioP2;P2;SDS_P1;SDS_P2;PMS_P1;PMS_P2;Temp;Humidity;BMP_temperature;BMP_pressure;BME280_temperature;BME280_humidity;BME280_pressure;Samples;Min_cycle;Max_cycle;Signal;HPM_P1;HPM_P2
2022/07/26 00:02:07;;;;;;;6.15;1.65;;;24.70;60.10;;;;;;4494529;31;20080;-67
2022/07/26 00:04:33;;;;;;;3.38;1.38;;;24.70;60.20;;;;;;4509109;31;20494;-67
2022/07/26 00:07:00;;;;;;;6.63;1.60;;;24.60;60.20;;;;;;4494681;31;20100;-67
2022/07/26 00:09:26;;;;;;;5.18;1.45;;;24.60;60.10;;;;;;4508902;31;20072;-67
2022/07/26 00:11:52;;;;;;;4.20;1.33;;;24.60;60.20;;;;;;4508900;31;20092;-67
2022/07/26 00:14:18;;;;;;;3.55;1.48;;;24.60;61.00;;;;;;4508906;31;20069;-67
2022/07/26 00:16:44;;;;;;;3.50;1.25;;;24.60;60.20;;;;;;4508932;31;20578;-67
2022/07/26 00:19:10;;;;;;;6.22;1.80;;;24.60;60.20;;;;;;4509097;31;20127;-67
2022/07/26 00:21:36;;;;;;;5.53;1.80;;;24.60;60.20;;;;;;4508521;31;20064;-70
2022/07/26 00:24:05;;;;;;;5.22;1.42;;;24.60;60.10;;;;;;4508468;31;20121;-67
2022/07/26 00:26:32;;;;;;;4.75;1.30;;;24.60;60.20;;;;;;4508669;31;20126;-67
2022/07/26 00:28:58;;;;;;;4.90;1.33;;;24.60;60.10;;;;;;4508758;31;20073;-68
2022/07/26 00:31:24;;;;;;;4.15;1.50;;;24.60;60.20;;;;;;4508366;31;20072;-67
2022/07/26 00:33:50;;;;;;;4.65;1.40;;;24.60;60.20;;;;;;4508341;31;20079;-67
2022/07/26 00:36:16;;;;;;;7.00;1.65;;;24.60;60.20;;;;;;4508470;31;20541;-67
2022/07/26 00:38:42;;;;;;;2.50;1.17;;;24.60;60.20;;;;;;4493887;31;20238;-67
2022/07/26 00:41:08;;;;;;;4.13;1.30;;;24.60;60.10;;;;;;4508553;31;20075;-67
2022/07/26 00:43:34;;;;;;;4.13;1.05;;;24.60;60.20;;;;;;4508148;31;20091;-67
2022/07/26 00:46:00;;;;;;;3.67;1.42;;;24.60;60.20;;;;;;4508424;31;20092;-67
2022/07/26 00:48:26;;;;;;;4.88;1.73;;;24.60;60.20;;;;;;4508295;31;20177;-67
2022/07/26 00:50:53;;;;;;;4.10;1.60;;;24.60;60.20;;;;;;4508295;31;20175;-67
2022/07/26 00:53:21;;;;;;;3.13;1.20;;;24.60;60.10;;;;;;4508171;31;20407;-67
2022/07/26 00:55:48;;;;;;;4.00;1.33;;;24.60;60.20;;;;;;4508253;31;20169;-67
2022/07/26 00:58:14;;;;;;;4.07;1.27;;;24.50;60.10;;;;;;4508010;31;20088;-66
2022/07/26 01:00:40;;;;;;;4.22;1.10;;;24.50;60.20;;;;;;4508244;31;20072;-67
2022/07/26 01:03:06;;;;;;;4.15;1.35;;;24.50;60.20;;;;;;4507930;31;20383;-67
2022/07/26 01:05:32;;;;;;;3.88;1.55;;;24.50;60.10;;;;;;4507788;31;20411;-67
2022/07/26 01:08:01;;;;;;;2.13;0.98;;;24.50;60.20;;;;;;4507820;31;20092;-67
2022/07/26 01:10:27;;;;;;;4.05;1.55;;;24.50;60.10;;;;;;4508372;31;20064;-67
2022/07/26 01:12:53;;;;;;;3.90;1.20;;;24.50;60.20;;;;;;4508325;31;20150;-67
2022/07/26 01:15:20;;;;;;;4.18;1.42;;;24.50;61.10;;;;;;4507993;31;20065;-67
2022/07/26 01:17:46;;;;;;;4.07;1.40;;;24.50;60.10;;;;;;4507757;31;20480;-67
2022/07/26 01:20:13;;;;;;;3.75;1.35;;;24.50;60.20;;;;;;4508207;31;20105;-67
2022/07/26 01:22:39;;;;;;;2.78;0.98;;;24.50;61.10;;;;;;4507971;31;20084;-67
2022/07/26 01:25:06;;;;;;;3.38;1.30;;;24.50;60.20;;;;;;4507964;31;20618;-67
2022/07/26 01:27:33;;;;;;;2.65;1.10;;;24.50;60.20;;;;;;4507917;31;20143;-67
2022/07/26 01:29:59;;;;;;;3.47;1.15;;;24.50;60.20;;;;;;4507791;31;20081;-67
2022/07/26 01:32:24;;;;;;;2.10;0.90;;;24.50;60.10;;;;;;4507629;31;20157;-67
2022/07/26 01:34:50;;;;;;;2.67;1.15;;;24.50;60.20;;;;;;4507619;31;20061;-67
2022/07/26 01:37:16;;;;;;;3.15;1.15;;;24.50;60.20;;;;;;4508001;31;20069;-67
2022/07/26 01:39:44;;;;;;;3.72;1.40;;;24.50;60.20;;;;;;4507943;31;20104;-67
2022/07/26 01:42:10;;;;;;;4.35;1.10;;;24.50;60.20;;;;;;4508051;31;20173;-67
2022/07/26 01:44:36;;;;;;;3.88;1.02;;;24.50;60.20;;;;;;4507758;31;20095;-67
2022/07/26 01:47:02;;;;;;;3.38;1.25;;;24.50;60.20;;;;;;4493235;31;20109;-66
2022/07/26 01:49:28;;;;;;;3.60;1.10;;;24.50;60.20;;;;;;4507644;31;20084;-67
2022/07/26 01:51:54;;;;;;;3.47;1.10;;;24.50;60.30;;;;;;4507393;31;20089;-67
2022/07/26 01:54:20;;;;;;;2.90;0.98;;;24.40;60.20;;;;;;4508637;31;20162;-67
2022/07/26 01:56:45;;;;;;;3.08;1.30;;;24.40;60.20;;;;;;4510797;31;20077;-67
2022/07/26 01:59:11;;;;;;;4.07;1.25;;;24.40;60.20;;;;;;4510748;31;20080;-67
2022/07/26 02:01:37;;;;;;;2.50;1.30;;;24.40;60.30;;;;;;4510637;31;20057;-67
2022/07/26 02:04:03;;;;;;;3.47;1.20;;;24.40;60.20;;;;;;4510759;31;20213;-67
2022/07/26 02:06:29;;;;;;;4.82;1.30;;;24.40;60.20;;;;;;4510923;31;20061;-67
2022/07/26 02:08:55;;;;;;;4.85;1.38;;;24.40;60.20;;;;;;4510651;31;20420;-67
2022/07/26 02:11:21;;;;;;;3.10;1.20;;;24.40;60.30;;;;;;4510990;31;20087;-67
2022/07/26 02:13:47;;;;;;;4.22;1.33;;;24.40;60.20;;;;;;4510700;31;20076;-67
2022/07/26 02:16:14;;;;;;;4.00;1.20;;;24.40;60.30;;;;;;4510905;31;20577;-67
2022/07/26 02:18:41;;;;;;;3.63;1.30;;;24.40;60.30;;;;;;4510616;31;20222;-66
2022/07/26 02:21:08;;;;;;;3.38;1.00;;;24.40;60.30;;;;;;4510599;31;20135;-67
2022/07/26 02:23:34;;;;;;;4.38;1.25;;;24.40;60.30;;;;;;4510546;31;20069;-67
2022/07/26 02:26:00;;;;;;;2.97;1.20;;;24.40;60.30;;;;;;4510818;31;20088;-67
2022/07/26 02:28:26;;;;;;;2.67;1.10;;;24.40;60.30;;;;;;4510437;31;20107;-67
2022/07/26 02:30:52;;;;;;;3.97;1.17;;;24.40;60.20;;;;;;4510400;31;20217;-66
2022/07/26 02:33:19;;;;;;;2.72;1.20;;;24.40;60.30;;;;;;4509933;31;20604;-67
2022/07/26 02:35:46;;;;;;;2.72;1.00;;;24.30;60.20;;;;;;4510512;31;20226;-67
2022/07/26 02:38:14;;;;;;;3.97;1.17;;;24.40;60.30;;;;;;4510615;31;20532;-67
2022/07/26 02:40:40;;;;;;;3.83;1.35;;;24.40;60.30;;;;;;4495721;31;20080;-67
2022/07/26 02:43:08;;;;;;;2.47;0.88;;;24.40;60.30;;;;;;4496000;31;20077;-66
2022/07/26 02:45:34;;;;;;;2.65;1.20;;;24.40;60.30;;;;;;4510403;31;20091;-67
2022/07/26 02:48:00;;;;;;;3.95;1.00;;;24.30;60.20;;;;;;4509901;31;20111;-67
2022/07/26 02:50:27;;;;;;;5.53;1.13;;;24.30;60.20;;;;;;4510222;31;20217;-67
2022/07/26 02:52:53;;;;;;;3.30;1.23;;;24.40;60.20;;;;;;4510122;31;20540;-67
2022/07/26 02:55:23;;;;;;;2.35;1.20;;;24.30;60.20;;;;;;4510107;31;20089;-67
2022/07/26 02:57:49;;;;;;;3.90;1.20;;;24.30;60.20;;;;;;4510301;31;20112;-67
2022/07/26 03:00:17;;;;;;;2.78;1.05;;;24.30;60.20;;;;;;4510005;31;20209;-67
2022/07/26 03:02:43;;;;;;;2.75;1.10;;;24.30;60.20;;;;;;4509987;31;20222;-67
2022/07/26 03:05:10;;;;;;;3.13;1.15;;;24.30;60.20;;;;;;4509424;31;20157;-67
2022/07/26 03:07:35;;;;;;;3.17;0.90;;;24.30;60.20;;;;;;4509796;31;20097;-67
2022/07/26 03:10:03;;;;;;;4.95;1.20;;;24.30;60.20;;;;;;4509779;31;20131;-70
2022/07/26 03:12:29;;;;;;;3.17;1.10;;;24.30;60.20;;;;;;4509839;31;20088;-67
2022/07/26 03:14:55;;;;;;;2.97;1.13;;;24.30;60.20;;;;;;4509811;31;20068;-67
2022/07/26 03:17:21;;;;;;;1.80;0.80;;;24.30;60.20;;;;;;4509770;31;20075;-68
2022/07/26 03:19:47;;;;;;;3.00;1.15;;;24.30;60.20;;;;;;4509783;31;20153;-67
2022/07/26 03:22:13;;;;;;;3.28;1.10;;;24.30;60.20;;;;;;4509672;31;20092;-67
2022/07/26 03:24:38;;;;;;;2.58;0.80;;;24.30;60.20;;;;;;4509427;31;20500;-66
2022/07/26 03:27:04;;;;;;;2.63;1.00;;;24.30;60.20;;;;;;4509834;31;20476;-67
2022/07/26 03:29:30;;;;;;;3.80;0.90;;;24.30;60.10;;;;;;4509492;31;20079;-67
2022/07/26 03:31:56;;;;;;;2.67;1.10;;;24.30;60.20;;;;;;4509570;31;20150;-67
2022/07/26 03:34:22;;;;;;;3.67;0.93;;;24.20;60.10;;;;;;4509135;31;20068;-67
2022/07/26 03:36:48;;;;;;;2.00;0.77;;;24.30;60.10;;;;;;4509425;31;20091;-67
2022/07/26 03:39:14;;;;;;;2.70;0.60;;;24.30;60.20;;;;;;4509760;31;20091;-67
2022/07/26 03:41:40;;;;;;;2.75;0.95;;;24.30;60.10;;;;;;4509621;31;20073;-67
2022/07/26 03:44:06;;;;;;;2.63;0.88;;;24.20;60.10;;;;;;4509418;31;20425;-67
2022/07/26 03:46:31;;;;;;;3.33;1.27;;;24.30;60.10;;;;;;4509426;31;20401;-66
2022/07/26 03:48:58;;;;;;;2.35;0.68;;;24.20;60.10;;;;;;4509516;31;20060;-67
2022/07/26 03:51:23;;;;;;;2.45;0.60;;;24.20;60.10;;;;;;4509047;31;20425;-67
2022/07/26 03:53:49;;;;;;;2.55;0.98;;;24.20;60.10;;;;;;4509516;31;20072;-67
2022/07/26 03:56:27;;;;;;;2.08;0.82;;;24.20;60.10;;;;;;4509193;31;20084;-67
2022/07/26 03:58:54;;;;;;;2.25;0.90;;;24.20;60.10;;;;;;4509280;31;20221;-68
2022/07/26 04:01:20;;;;;;;2.35;1.10;;;24.20;60.10;;;;;;4508880;31;20069;-67
2022/07/26 04:03:46;;;;;;;3.22;0.93;;;24.20;60.10;;;;;;4509339;31;20084;-67
2022/07/26 04:06:12;;;;;;;3.20;1.23;;;24.20;60.00;;;;;;4508990;31;20394;-67
2022/07/26 04:08:38;;;;;;;2.05;0.70;;;24.20;60.10;;;;;;4509212;31;20148;-67
2022/07/26 04:11:04;;;;;;;2.50;0.77;;;24.20;60.00;;;;;;4494768;31;20135;-67
2022/07/26 04:13:30;;;;;;;2.55;0.70;;;24.20;60.10;;;;;;4508683;31;20198;-67
2022/07/26 04:15:56;;;;;;;2.47;0.85;;;24.20;60.10;;;;;;4508907;31;20068;-67
2022/07/26 04:18:22;;;;;;;1.25;0.77;;;24.20;60.00;;;;;;4508404;31;20100;-67
2022/07/26 04:20:48;;;;;;;1.75;0.90;;;24.20;60.00;;;;;;4508825;31;20157;-67
2022/07/26 04:23:13;;;;;;;2.38;0.75;;;24.20;60.00;;;;;;4508826;31;20078;-67
2022/07/26 04:25:40;;;;;;;2.80;0.73;;;24.20;60.00;;;;;;4508512;31;20415;-67
2022/07/26 04:28:05;;;;;;;0.98;0.40;;;24.20;60.10;;;;;;4508713;31;20108;-67
2022/07/26 04:30:31;;;;;;;1.73;0.52;;;24.20;60.10;;;;;;4508901;31;20076;-67
2022/07/26 04:32:57;;;;;;;2.65;0.70;;;24.20;60.00;;;;;;4508477;31;20068;-67
2022/07/26 04:35:24;;;;;;;2.75;0.80;;;24.20;60.00;;;;;;4508620;31;20084;-67
2022/07/26 04:37:50;;;;;;;2.67;0.63;;;24.20;60.10;;;;;;4508471;31;20097;-67
2022/07/26 04:40:18;;;;;;;3.75;0.77;;;24.20;60.00;;;;;;4508560;31;20068;-67
2022/07/26 04:42:45;;;;;;;1.20;0.60;;;24.20;60.00;;;;;;4494185;31;20080;-67
2022/07/26 04:45:12;;;;;;;2.53;0.77;;;24.20;60.00;;;;;;4508472;31;20073;-67
2022/07/26 04:47:48;;;;;;;2.28;0.82;;;24.20;60.00;;;;;;4508432;31;20526;-67
2022/07/26 04:50:14;;;;;;;2.35;0.93;;;24.20;60.00;;;;;;4508447;31;20068;-67
2022/07/26 04:52:40;;;;;;;2.75;0.82;;;24.20;60.00;;;;;;4494038;31;20414;-67
2022/07/26 04:55:07;;;;;;;1.10;0.73;;;24.20;60.10;;;;;;4508573;31;20138;-67
2022/07/26 04:57:34;;;;;;;1.30;0.88;;;24.20;60.10;;;;;;4508020;31;20518;-67
2022/07/26 05:00:00;;;;;;;1.67;0.57;;;24.10;60.00;;;;;;4508471;31;20073;-67
2022/07/26 05:02:26;;;;;;;2.03;0.75;;;24.20;60.00;;;;;;4508199;31;20091;-67
2022/07/26 05:04:52;;;;;;;1.83;0.70;;;24.20;60.00;;;;;;4508192;31;20557;-67
2022/07/26 05:07:18;;;;;;;3.60;1.08;;;24.20;60.00;;;;;;4493871;31;20073;-67
2022/07/26 05:09:44;;;;;;;2.05;0.77;;;24.10;59.90;;;;;;4493563;31;20554;-67
2022/07/26 05:12:10;;;;;;;2.45;0.68;;;24.10;60.00;;;;;;4508107;31;20193;-67
2022/07/26 05:14:36;;;;;;;2.38;0.55;;;24.10;60.00;;;;;;4508317;31;20490;-67
2022/07/26 05:17:03;;;;;;;2.78;0.70;;;24.10;60.00;;;;;;4507994;31;20104;-67
2022/07/26 05:19:29;;;;;;;3.10;0.70;;;24.10;60.00;;;;;;4508042;31;20077;-67
2022/07/26 05:21:55;;;;;;;2.20;0.70;;;24.10;60.00;;;;;;4493981;31;20383;-67
2022/07/26 05:24:20;;;;;;;2.88;0.77;;;24.10;59.90;;;;;;4508213;31;20215;-67
2022/07/26 05:26:46;;;;;;;1.73;0.68;;;24.10;60.00;;;;;;4507712;31;20068;-67
2022/07/26 05:29:12;;;;;;;1.73;0.60;;;24.10;60.00;;;;;;4507690;31;20357;-67
2022/07/26 05:31:38;;;;;;;1.45;0.52;;;24.10;60.00;;;;;;4507932;31;20607;-67
2022/07/26 05:34:04;;;;;;;1.92;0.70;;;24.10;60.00;;;;;;4507763;31;20194;-67
2022/07/26 05:36:30;;;;;;;2.08;0.60;;;24.10;60.00;;;;;;4507533;31;20103;-67
2022/07/26 05:38:56;;;;;;;2.25;0.40;;;24.10;60.00;;;;;;4507602;31;20497;-66
2022/07/26 05:41:22;;;;;;;1.77;0.68;;;24.10;60.00;;;;;;4508139;31;20073;-67
2022/07/26 05:43:47;;;;;;;2.92;0.73;;;24.10;60.00;;;;;;4507503;31;20177;-67
2022/07/26 05:46:14;;;;;;;1.92;0.80;;;24.10;60.00;;;;;;4507798;31;20092;-67
2022/07/26 05:48:41;;;;;;;1.02;0.50;;;24.10;60.00;;;;;;4507415;31;20092;-67
2022/07/26 05:51:08;;;;;;;1.92;0.73;;;24.00;60.00;;;;;;4507738;31;20494;-67
2022/07/26 05:53:35;;;;;;;2.08;0.82;;;24.10;60.10;;;;;;4508036;31;20073;-67
2022/07/26 05:56:00;;;;;;;2.40;0.70;;;24.10;60.00;;;;;;4507673;31;20077;-67
2022/07/26 05:58:27;;;;;;;2.30;0.80;;;24.00;59.90;;;;;;4507657;31;20076;-67
2022/07/26 06:00:52;;;;;;;1.40;0.50;;;24.10;60.00;;;;;;4507920;31;20438;-67
2022/07/26 06:03:21;;;;;;;1.52;0.60;;;24.00;60.00;;;;;;4493402;31;20468;-67
2022/07/26 06:05:48;;;;;;;1.50;0.60;;;24.00;60.00;;;;;;4493366;31;20116;-67
2022/07/26 06:08:15;;;;;;;2.17;0.60;;;24.10;60.00;;;;;;4506895;31;20131;-67
2022/07/26 06:10:40;;;;;;;2.03;0.57;;;24.10;60.80;;;;;;4507663;31;20077;-67
2022/07/26 06:13:07;;;;;;;2.38;0.52;;;24.10;60.00;;;;;;4507513;31;20080;-67
2022/07/26 06:15:33;;;;;;;1.15;0.52;;;24.10;60.00;;;;;;4507188;31;20096;-67
2022/07/26 06:17:59;;;;;;;2.08;0.60;;;24.00;59.90;;;;;;4507510;31;20084;-68
2022/07/26 06:20:25;;;;;;;2.72;0.50;;;24.10;60.00;;;;;;4507468;31;20165;-67
2022/07/26 06:22:51;;;;;;;2.40;0.70;;;24.00;59.90;;;;;;4493396;31;20083;-67
2022/07/26 06:25:17;;;;;;;1.52;0.40;;;24.00;59.90;;;;;;4507389;31;20084;-67
2022/07/26 06:27:43;;;;;;;1.60;0.55;;;24.00;59.90;;;;;;4507435;31;20101;-67
2022/07/26 06:30:09;;;;;;;1.38;0.60;;;24.00;59.90;;;;;;4507662;31;20065;-67
2022/07/26 06:32:35;;;;;;;1.48;0.60;;;24.00;59.90;;;;;;4507110;31;20087;-67
2022/07/26 06:35:01;;;;;;;1.67;0.50;;;24.10;59.90;;;;;;4507161;31;20072;-67
2022/07/26 06:37:27;;;;;;;1.33;0.40;;;24.00;59.90;;;;;;4507026;31;20068;-67
2022/07/26 06:39:53;;;;;;;1.50;0.60;;;24.00;59.90;;;;;;4506810;31;20104;-67
2022/07/26 06:42:18;;;;;;;2.22;0.57;;;24.10;59.90;;;;;;4510504;31;20061;-67
2022/07/26 06:44:44;;;;;;;1.30;0.50;;;24.00;59.80;;;;;;4495691;31;20085;-67
2022/07/26 06:47:10;;;;;;;1.50;0.50;;;24.00;59.80;;;;;;4510489;31;20198;-66
2022/07/26 06:49:36;;;;;;;2.97;0.70;;;24.00;59.80;;;;;;4510189;31;20211;-67
2022/07/26 06:52:01;;;;;;;2.33;0.60;;;24.00;59.70;;;;;;4510214;31;20471;-67
2022/07/26 06:54:27;;;;;;;1.65;0.55;;;24.00;59.70;;;;;;4510119;31;20112;-67
2022/07/26 06:56:53;;;;;;;2.75;0.55;;;24.00;59.70;;;;;;4510057;31;20101;-66
2022/07/26 06:59:19;;;;;;;1.77;0.70;;;24.00;59.70;;;;;;4510393;31;20154;-68
2022/07/26 07:01:45;;;;;;;1.73;0.60;;;24.00;59.70;;;;;;4510019;31;20075;-68
2022/07/26 07:04:11;;;;;;;4.63;0.50;;;24.00;59.70;;;;;;4509728;31;20533;-68
2022/07/26 07:06:36;;;;;;;4.25;0.75;;;24.00;59.40;;;;;;4509836;31;20064;-68
2022/07/26 07:09:02;;;;;;;4.30;1.10;;;24.00;59.30;;;;;;4495610;31;20077;-68
2022/07/26 07:11:28;;;;;;;4.97;0.95;;;24.00;58.90;;;;;;4510076;31;20088;-68
2022/07/26 07:13:55;;;;;;;5.68;1.00;;;24.00;58.50;;;;;;4509884;31;20501;-67
2022/07/26 07:16:20;;;;;;;6.47;1.10;;;24.00;58.30;;;;;;4510056;31;20087;-68
2022/07/26 07:18:46;;;;;;;5.22;1.00;;;24.00;58.00;;;;;;4509452;31;20080;-68
2022/07/26 07:21:12;;;;;;;5.00;1.20;;;24.00;57.70;;;;;;4509769;31;20061;-68
2022/07/26 07:23:38;;;;;;;4.95;1.02;;;24.00;57.40;;;;;;4509692;31;20405;-68
2022/07/26 07:26:03;;;;;;;4.43;1.08;;;24.00;57.30;;;;;;4509890;31;20169;-68
2022/07/26 07:28:32;;;;;;;6.57;1.25;;;23.90;56.90;;;;;;4495050;31;20080;-68
2022/07/26 07:30:58;;;;;;;7.13;2.25;;;23.90;56.70;;;;;;4509708;31;20077;-68
2022/07/26 07:33:24;;;;;;;6.22;1.00;;;23.90;56.60;;;;;;4509392;31;20165;-68
2022/07/26 07:35:51;;;;;;;5.55;1.08;;;23.90;56.40;;;;;;4494942;31;20528;-68
2022/07/26 07:38:17;;;;;;;3.92;0.75;;;23.90;55.90;;;;;;4509410;31;20068;-68
2022/07/26 07:40:42;;;;;;;5.80;1.35;;;23.90;56.70;;;;;;4509389;31;20064;-68
2022/07/26 07:43:08;;;;;;;4.32;0.90;;;23.90;55.60;;;;;;4509338;31;20537;-68
2022/07/26 07:45:34;;;;;;;5.38;0.90;;;23.80;55.50;;;;;;4509312;31;20069;-67
2022/07/26 07:48:00;;;;;;;4.90;1.25;;;23.90;55.40;;;;;;4509492;31;20501;-68
2022/07/26 07:50:26;;;;;;;5.03;0.95;;;23.80;55.20;;;;;;4509166;31;20596;-68
2022/07/26 07:52:52;;;;;;;3.13;0.60;;;23.80;55.10;;;;;;4494891;31;20089;-68
2022/07/26 07:55:18;;;;;;;4.47;0.75;;;23.90;55.10;;;;;;4494853;31;20417;-68
2022/07/26 07:57:44;;;;;;;4.40;0.85;;;23.80;55.00;;;;;;4509633;31;20258;-68
2022/07/26 08:00:13;;;;;;;2.55;0.70;;;23.80;54.90;;;;;;4509154;31;20132;-68
2022/07/26 08:02:39;;;;;;;5.80;1.23;;;23.90;55.00;;;;;;4509120;31;20088;-69
2022/07/26 08:05:06;;;;;;;9.32;0.90;;;23.90;55.00;;;;;;4509107;31;20073;-67
2022/07/26 08:07:32;;;;;;;6.70;0.90;;;23.90;55.00;;;;;;4508889;31;20077;-68
2022/07/26 08:09:58;;;;;;;2.50;0.73;;;23.80;54.90;;;;;;4508893;31;20057;-69
2022/07/26 08:12:24;;;;;;;5.13;1.00;;;23.90;54.90;;;;;;4508912;31;20081;-68
2022/07/26 08:14:51;;;;;;;7.50;1.27;;;23.90;54.80;;;;;;4508880;31;20528;-68
2022/07/26 08:17:16;;;;;;;3.50;0.80;;;23.90;54.90;;;;;;4508925;31;20080;-68
2022/07/26 08:19:42;;;;;;;3.95;1.05;;;23.90;55.00;;;;;;4509097;31;20464;-68
2022/07/26 08:22:09;;;;;;;4.53;1.00;;;23.90;55.10;;;;;;4508770;31;20388;-68
2022/07/26 08:24:35;;;;;;;5.07;0.93;;;23.90;55.00;;;;;;4508723;31;20068;-68
2022/07/26 08:27:01;;;;;;;5.90;1.10;;;23.90;54.80;;;;;;4508664;31;20387;-67
2022/07/26 08:29:27;;;;;;;4.43;0.90;;;24.00;54.80;;;;;;4508888;31;20061;-68
2022/07/26 08:31:53;;;;;;;6.68;1.23;;;23.90;54.80;;;;;;4508686;31;20101;-68
2022/07/26 08:34:20;;;;;;;5.82;1.20;;;24.00;54.90;;;;;;4508415;31;20084;-68
2022/07/26 08:36:46;;;;;;;6.65;1.42;;;24.00;54.80;;;;;;4508394;31;20123;-68
2022/07/26 08:39:12;;;;;;;9.00;1.20;;;24.00;54.80;;;;;;4508620;31;20201;-68
2022/07/26 08:41:39;;;;;;;5.10;1.23;;;24.00;54.90;;;;;;4508518;31;20649;-70
2022/07/26 08:44:07;;;;;;;6.10;1.15;;;24.00;54.90;;;;;;4494095;31;20068;-68
2022/07/26 08:46:39;;;;;;;10.82;1.75;;;24.00;54.80;;;;;;4508489;31;20095;-68
2022/07/26 08:49:09;;;;;;;8.07;1.38;;;24.00;54.60;;;;;;4508429;31;20076;-67
2022/07/26 08:51:43;;;;;;;6.95;1.30;;;24.00;54.60;;;;;;4508180;31;20091;-67
2022/07/26 08:54:11;;;;;;;10.30;1.27;;;24.00;54.50;;;;;;4508615;31;20502;-67
2022/07/26 08:56:47;;;;;;;6.55;1.27;;;24.00;54.50;;;;;;4508004;31;20092;-67
2022/07/26 08:59:17;;;;;;;9.25;1.63;;;24.00;54.80;;;;;;4508295;31;20104;-67
2022/07/26 09:01:53;;;;;;;8.93;1.80;;;24.00;54.70;;;;;;4508462;31;20182;-67
2022/07/26 09:04:25;;;;;;;7.28;1.85;;;24.10;54.80;;;;;;4508213;31;20068;-67
2022/07/26 09:06:57;;;;;;;6.68;1.52;;;24.10;54.90;;;;;;4508110;31;20413;-68
2022/07/26 09:09:23;;;;;;;6.30;1.30;;;24.10;55.00;;;;;;4508097;31;20614;-70
2022/07/26 09:11:49;;;;;;;5.57;1.52;;;24.10;55.00;;;;;;4508340;31;20127;-68
2022/07/26 09:14:15;;;;;;;8.85;1.60;;;24.20;54.90;;;;;;4508050;31;20198;-67
2022/07/26 09:16:56;;;;;;;10.63;1.90;;;24.10;54.80;;;;;;4508330;31;20512;-67
2022/07/26 09:19:23;;;;;;;8.73;1.80;;;24.10;54.50;;;;;;4508139;31;20087;-67
2022/07/26 09:21:49;;;;;;;7.65;1.95;;;24.10;54.70;;;;;;4507689;31;20617;-66
2022/07/26 09:24:33;;;;;;;9.27;1.65;;;24.20;54.60;;;;;;4507909;31;20094;-67
2022/07/26 09:27:00;;;;;;;5.97;1.73;;;24.20;54.60;;;;;;4507907;31;20077;-67
2022/07/26 09:29:30;;;;;;;7.85;2.03;;;24.20;54.60;;;;;;4507873;31;20104;-67
2022/07/26 09:32:29;;;;;;;7.55;1.95;;;24.20;54.60;;;;;;4507824;31;20157;-67
2022/07/26 09:35:08;;;;;;;9.43;2.25;;;24.20;54.60;;;;;;4467153;31;20077;-68
2022/07/26 09:37:45;;;;;;;6.18;1.58;;;24.20;54.60;;;;;;4508101;31;20104;-67
2022/07/26 09:40:13;;;;;;;9.55;2.10;;;24.20;54.60;;;;;;4507760;31;20068;-67
2022/07/26 09:42:59;;;;;;;8.05;1.85;;;24.20;54.50;;;;;;4493497;31;20097;-67
2022/07/26 09:45:26;;;;;;;6.38;1.73;;;24.20;54.30;;;;;;4507721;31;20088;-68
2022/07/26 09:47:52;;;;;;;7.32;1.83;;;24.20;54.30;;;;;;4507879;31;20203;-67
2022/07/26 09:50:23;;;;;;;10.13;1.95;;;24.20;54.30;;;;;;4507676;31;20394;-67
2022/07/26 09:53:06;;;;;;;10.15;1.98;;;24.20;54.20;;;;;;4507639;31;20069;-67
2022/07/26 09:55:33;;;;;;;8.02;2.00;;;24.20;54.10;;;;;;4507647;31;20077;-67
2022/07/26 09:58:02;;;;;;;7.13;1.63;;;24.20;54.10;;;;;;4507614;31;20135;-67
2022/07/26 10:00:29;;;;;;;10.88;1.98;;;24.20;54.00;;;;;;4507502;31;20131;-67
2022/07/26 10:02:55;;;;;;;10.60;1.67;;;24.20;53.90;;;;;;4507514;31;20096;-67
2022/07/26 10:05:21;;;;;;;7.25;1.65;;;24.20;53.90;;;;;;4507546;31;20073;-68
2022/07/26 10:07:50;;;;;;;6.53;1.80;;;24.30;54.00;;;;;;4493212;31;20084;-67
2022/07/26 10:10:33;;;;;;;8.90;2.08;;;24.30;53.80;;;;;;4507141;31;20076;-67
2022/07/26 10:13:02;;;;;;;6.18;1.58;;;24.30;53.80;;;;;;4507725;31;20226;-67
2022/07/26 10:15:46;;;;;;;6.68;1.77;;;24.30;53.70;;;;;;4508279;31;20077;-67
2022/07/26 10:18:35;;;;;;;5.45;1.35;;;24.40;54.60;;;;;;4510625;31;20088;-67
2022/07/26 10:21:24;;;;;;;9.45;1.67;;;24.30;53.60;;;;;;4496056;31;20068;-67
2022/07/26 10:23:55;;;;;;;7.43;1.73;;;24.40;53.60;;;;;;4510651;31;20150;-68
2022/07/26 10:26:30;;;;;;;5.63;1.75;;;24.40;53.60;;;;;;4510411;31;20158;-67
2022/07/26 10:29:14;;;;;;;7.50;1.30;;;24.40;53.40;;;;;;4510711;31;20494;-68
2022/07/26 10:31:41;;;;;;;8.60;1.60;;;24.40;53.40;;;;;;4510447;31;20080;-67
2022/07/26 10:34:07;;;;;;;8.02;1.60;;;24.40;53.30;;;;;;4510242;31;20414;-69
2022/07/26 10:36:38;;;;;;;6.15;1.58;;;24.40;53.30;;;;;;4510285;31;20068;-68
2022/07/26 10:39:04;;;;;;;5.15;1.55;;;24.40;53.20;;;;;;4510669;31;20131;-68
2022/07/26 10:41:35;;;;;;;5.60;1.40;;;24.40;53.00;;;;;;4510195;31;20065;-68
2022/07/26 10:44:12;;;;;;;6.32;1.50;;;24.40;52.80;;;;;;4496055;31;20081;-69
2022/07/26 10:46:55;;;;;;;5.53;1.45;;;24.40;52.80;;;;;;4510332;31;20231;-68
2022/07/26 10:49:31;;;;;;;7.32;1.40;;;24.40;53.60;;;;;;4495936;31;20387;-68
2022/07/26 10:52:09;;;;;;;4.07;1.30;;;24.40;52.30;;;;;;4510338;31;20069;-69
2022/07/26 10:55:03;;;;;;;4.78;1.42;;;24.50;52.40;;;;;;4510269;31;20211;-67
2022/07/26 10:57:34;;;;;;;4.47;1.30;;;24.50;52.20;;;;;;4509801;31;20126;-68
2022/07/26 11:00:08;;;;;;;6.70;0.95;;;24.50;52.50;;;;;;4509837;31;20065;-68
2022/07/26 11:02:35;;;;;;;6.38;1.45;;;24.50;52.30;;;;;;4510418;31;20493;-67
2022/07/26 11:05:03;;;;;;;4.95;1.05;;;24.50;52.30;;;;;;4509896;31;20091;-67
2022/07/26 11:07:30;;;;;;;8.15;1.40;;;24.50;52.10;;;;;;4509475;31;20077;-68
2022/07/26 11:09:56;;;;;;;5.68;1.30;;;24.50;51.90;;;;;;4509849;31;20092;-67
2022/07/26 11:12:23;;;;;;;4.82;1.23;;;24.50;51.90;;;;;;4510090;31;20077;-67
2022/07/26 11:14:49;;;;;;;4.05;1.20;;;24.60;51.80;;;;;;4509719;31;20053;-67
2022/07/26 11:17:29;;;;;;;7.90;1.63;;;24.60;52.00;;;;;;4509856;31;20068;-68
2022/07/26 11:19:56;;;;;;;8.70;1.02;;;24.50;51.90;;;;;;4509752;31;20073;-67
2022/07/26 11:22:30;;;;;;;7.72;1.20;;;24.60;51.70;;;;;;4509717;31;20430;-67
2022/07/26 11:24:56;;;;;;;5.38;1.20;;;24.60;51.50;;;;;;4509792;31;20138;-67
2022/07/26 11:27:22;;;;;;;6.30;1.20;;;24.60;51.50;;;;;;4509322;31;20072;-67
2022/07/26 11:29:48;;;;;;;5.43;1.60;;;24.60;51.40;;;;;;4509758;31;20099;-67
2022/07/26 11:32:24;;;;;;;5.45;1.38;;;24.60;51.20;;;;;;4509552;31;20118;-67
2022/07/26 11:35:03;;;;;;;3.83;1.10;;;24.60;50.80;;;;;;4509140;31;20080;-66
2022/07/26 11:37:30;;;;;;;6.22;1.10;;;24.60;50.80;;;;;;4509313;31;20514;-67
2022/07/26 11:39:56;;;;;;;3.92;1.08;;;24.60;50.70;;;;;;4509406;31;20069;-67
2022/07/26 11:42:22;;;;;;;3.47;1.00;;;24.60;50.50;;;;;;4509417;31;20089;-67
2022/07/26 11:44:48;;;;;;;6.38;1.20;;;24.70;50.50;;;;;;4509595;31;20057;-68
2022/07/26 11:47:20;;;;;;;7.75;1.50;;;24.70;50.30;;;;;;4508972;31;20246;-68
2022/07/26 11:49:47;;;;;;;7.47;1.52;;;24.70;50.50;;;;;;4495090;31;20068;-68
2022/07/26 11:52:14;;;;;;;6.38;1.10;;;24.70;50.70;;;;;;4495046;31;20085;-67
2022/07/26 11:54:50;;;;;;;9.70;1.50;;;24.70;50.50;;;;;;4508980;31;20648;-68
2022/07/26 11:57:17;;;;;;;5.78;1.80;;;24.80;50.80;;;;;;4509213;31;20440;-68
2022/07/26 11:59:45;;;;;;;9.10;1.48;;;24.80;50.80;;;;;;4509434;31;20379;-67
2022/07/26 12:02:12;;;;;;;6.53;1.20;;;24.80;51.00;;;;;;4509063;31;20087;-66
2022/07/26 12:04:40;;;;;;;11.32;1.50;;;24.70;51.00;;;;;;4509077;31;20218;-66
2022/07/26 12:07:12;;;;;;;5.57;1.20;;;24.70;51.20;;;;;;4494310;31;20094;-67
2022/07/26 12:09:41;;;;;;;3.53;1.27;;;24.70;51.30;;;;;;4508971;31;20065;-67
2022/07/26 12:12:17;;;;;;;10.07;1.52;;;24.70;51.40;;;;;;4508843;31;20092;-67
2022/07/26 12:14:53;;;;;;;4.65;1.35;;;24.70;51.60;;;;;;4509345;31;20210;-67
2022/07/26 12:17:19;;;;;;;3.47;1.30;;;24.70;51.80;;;;;;4509203;31;20199;-66
2022/07/26 12:19:45;;;;;;;4.68;1.15;;;24.70;51.90;;;;;;4508586;31;20410;-66
2022/07/26 12:22:20;;;;;;;5.38;1.13;;;24.70;52.00;;;;;;4508532;31;20080;-67
2022/07/26 12:24:46;;;;;;;5.93;1.20;;;24.60;52.00;;;;;;4508845;31;20695;-67
2022/07/26 12:27:16;;;;;;;4.90;1.23;;;24.70;52.10;;;;;;4509021;31;20080;-66
2022/07/26 12:29:43;;;;;;;3.78;1.15;;;24.70;52.10;;;;;;4508417;31;20577;-67
2022/07/26 12:32:11;;;;;;;3.42;1.20;;;24.70;52.20;;;;;;4508746;31;20177;-67
2022/07/26 12:34:38;;;;;;;6.25;1.25;;;24.60;52.10;;;;;;4508329;31;20094;-67
2022/07/26 12:37:09;;;;;;;5.28;1.20;;;24.60;52.10;;;;;;4509226;31;20124;-67
2022/07/26 12:39:36;;;;;;;4.93;1.27;;;24.60;52.30;;;;;;4508230;31;20095;-67
2022/07/26 12:42:22;;;;;;;7.57;1.13;;;24.60;52.30;;;;;;4508236;31;20158;-67
2022/07/26 12:44:48;;;;;;;3.47;1.15;;;24.60;52.30;;;;;;4508482;31;20091;-67
2022/07/26 12:47:14;;;;;;;4.32;1.02;;;24.60;52.30;;;;;;4508721;31;20105;-67
2022/07/26 12:49:39;;;;;;;3.97;1.08;;;24.60;53.30;;;;;;4508399;31;20077;-66